createdAt,value
2023-01-18T00:01:15.495Z,5.28
2023-01-18T00:03:42.456Z,4.60
2023-01-18T00:06:11.481Z,5.05
2023-01-18T00:08:40.035Z,4.35
2023-01-18T00:11:13.131Z,5.78
2023-01-18T00:13:40.424Z,5.18
2023-01-18T00:16:13.261Z,6.03
2023-01-18T00:18:40.265Z,4.28
2023-01-18T00:21:10.207Z,5.05
2023-01-18T00:23:37.595Z,3.80
2023-01-18T00:26:08.469Z,5.95
2023-01-18T00:28:36.218Z,5.57
2023-01-18T00:31:12.408Z,5.47
2023-01-18T00:33:39.491Z,6.60
2023-01-18T00:36:06.748Z,5.95
2023-01-18T00:38:33.479Z,6.63
2023-01-18T00:41:00.262Z,4.90
2023-01-18T00:43:38.986Z,5.40
2023-01-18T00:46:12.192Z,4.82
2023-01-18T00:48:40.307Z,5.72
2023-01-18T00:51:08.897Z,4.35
2023-01-18T00:53:38.134Z,4.28
2023-01-18T00:56:11.595Z,4.07
2023-01-18T00:58:38.338Z,5.47
2023-01-18T01:01:07.447Z,5.00
2023-01-18T01:03:54.943Z,4.55
2023-01-18T01:06:46.616Z,4.65
2023-01-18T01:09:17.076Z,5.65
2023-01-18T01:12:04.743Z,3.50
2023-01-18T01:14:52.720Z,3.55
2023-01-18T01:17:38.213Z,3.45
2023-01-18T01:20:24.664Z,4.03
2023-01-18T01:23:10.196Z,4.20
2023-01-18T01:25:56.186Z,4.32
2023-01-18T01:28:23.247Z,4.40
2023-01-18T01:30:50.045Z,3.85
2023-01-18T01:33:18.602Z,4.82
2023-01-18T01:35:45.416Z,4.15
2023-01-18T01:38:12.190Z,4.85
2023-01-18T01:40:38.898Z,4.10
2023-01-18T01:43:12.956Z,4.82
2023-01-18T01:45:40.004Z,4.40
2023-01-18T01:48:09.883Z,3.63
2023-01-18T01:50:39.913Z,3.75
2023-01-18T01:53:07.144Z,3.47
2023-01-18T01:55:37.943Z,2.88
2023-01-18T02:00:44.033Z,3.72
2023-01-18T02:03:13.198Z,6.10
2023-01-18T02:05:48.038Z,4.38
2023-01-18T02:08:22.732Z,5.32
2023-01-18T02:10:51.391Z,3.15
2023-01-18T02:13:21.561Z,3.97
2023-01-18T02:16:07.867Z,4.05
2023-01-18T02:19:34.235Z,4.47
2023-01-18T02:22:45.376Z,3.00
2023-01-18T02:25:39.557Z,4.80
2023-01-18T02:28:17.193Z,3.90
2023-01-18T02:30:52.318Z,4.15
2023-01-18T02:33:43.372Z,3.90
2023-01-18T02:36:26.382Z,3.97
2023-01-18T02:39:01.939Z,4.55
2023-01-18T02:42:03.689Z,3.78
2023-01-18T02:44:59.755Z,3.30
2023-01-18T02:47:27.799Z,4.55
2023-01-18T02:49:57.402Z,4.75
2023-01-18T02:52:49.755Z,3.88
2023-01-18T02:55:46.677Z,2.22
2023-01-18T02:58:31.555Z,3.25
2023-01-18T03:01:13.335Z,3.28
2023-01-18T03:03:46.992Z,4.22
2023-01-18T03:06:14.359Z,3.95
2023-01-18T03:08:51.878Z,3.63
2023-01-18T03:11:29.888Z,3.30
2023-01-18T03:14:12.853Z,3.08
2023-01-18T03:17:19.196Z,1.80
2023-01-18T03:20:08.819Z,3.17
2023-01-18T03:23:24.970Z,2.42
2023-01-18T03:25:56.595Z,2.83
2023-01-18T03:28:48.688Z,3.45
2023-01-18T03:31:40.244Z,2.93
2023-01-18T03:34:17.716Z,3.55
2023-01-18T03:36:48.897Z,2.40
2023-01-18T03:39:40.425Z,2.30
2023-01-18T03:42:17.188Z,3.55
2023-01-18T03:44:53.159Z,3.22
2023-01-18T03:47:20.593Z,3.60
2023-01-18T03:49:47.675Z,3.75
2023-01-18T03:52:24.072Z,2.35
2023-01-18T03:55:11.179Z,3.22
2023-01-18T03:57:55.756Z,3.85
2023-01-18T04:00:22.611Z,3.13
2023-01-18T04:02:50.826Z,2.65
2023-01-18T04:05:18.311Z,2.88
2023-01-18T04:07:45.234Z,3.50
2023-01-18T04:10:12.188Z,2.33
2023-01-18T04:12:38.965Z,3.08
2023-01-18T04:15:06.578Z,2.33
2023-01-18T04:17:33.352Z,3.00
2023-01-18T04:20:00.114Z,3.40
2023-01-18T04:22:26.922Z,2.13
2023-01-18T04:24:53.721Z,3.50
2023-01-18T04:27:20.826Z,4.38
2023-01-18T04:29:48.312Z,3.45
2023-01-18T04:32:15.021Z,3.38
2023-01-18T04:34:41.750Z,3.30
2023-01-18T04:37:08.705Z,4.00
2023-01-18T04:39:35.452Z,3.38
2023-01-18T04:42:02.216Z,3.08
2023-01-18T04:44:28.959Z,2.58
2023-01-18T04:46:55.762Z,2.67
2023-01-18T04:49:22.549Z,4.60
2023-01-18T04:51:49.531Z,8.43
2023-01-18T04:54:18.561Z,11.98
2023-01-18T04:56:45.580Z,7.53
2023-01-18T04:59:17.390Z,4.78
2023-01-18T05:01:44.401Z,3.07
2023-01-18T05:04:11.267Z,3.00
2023-01-18T05:06:38.028Z,3.38
2023-01-18T05:09:04.844Z,2.65
2023-01-18T05:11:31.570Z,2.15
2023-01-18T05:13:58.412Z,2.85
2023-01-18T05:16:25.254Z,2.65
2023-01-18T05:18:52.117Z,3.47
2023-01-18T05:21:18.939Z,3.50
2023-01-18T05:23:45.903Z,1.85
2023-01-18T05:26:21.356Z,2.42
2023-01-18T05:28:49.730Z,1.77
2023-01-18T05:31:18.941Z,1.63
2023-01-18T05:33:45.735Z,1.77
2023-01-18T05:36:12.523Z,1.95
2023-01-18T05:38:39.258Z,2.50
2023-01-18T05:41:06.077Z,2.33
2023-01-18T05:43:34.550Z,3.08
2023-01-18T05:46:02.378Z,3.05
2023-01-18T05:48:29.233Z,1.98
2023-01-18T05:50:55.965Z,2.33
2023-01-18T05:53:23.390Z,2.88
2023-01-18T05:55:59.209Z,2.50
2023-01-18T05:58:27.744Z,2.30
2023-01-18T06:00:55.491Z,2.20
2023-01-18T06:03:23.629Z,1.95
2023-01-18T06:05:51.602Z,2.88
2023-01-18T06:08:19.355Z,2.55
2023-01-18T06:10:56.128Z,1.50
2023-01-18T06:13:24.481Z,2.33
2023-01-18T06:15:52.118Z,1.52
2023-01-18T06:18:19.006Z,2.60
2023-01-18T06:20:45.712Z,3.25
2023-01-18T06:23:12.542Z,1.63
2023-01-18T06:25:39.299Z,2.58
2023-01-18T06:28:06.400Z,4.90
2023-01-18T06:30:34.642Z,4.78
2023-01-18T06:33:06.705Z,2.85
2023-01-18T06:35:34.836Z,2.10
2023-01-18T06:38:03.317Z,1.73
2023-01-18T06:40:30.622Z,1.10
2023-01-18T06:42:57.952Z,1.52
2023-01-18T06:45:26.008Z,1.45
2023-01-18T06:47:53.512Z,0.70
2023-01-18T06:50:20.729Z,0.65
2023-01-18T06:52:47.760Z,0.80
2023-01-18T06:55:15.703Z,1.00
2023-01-18T06:57:42.505Z,1.35
2023-01-18T07:00:11.153Z,2.20
2023-01-18T07:02:38.715Z,0.95
2023-01-18T07:05:06.125Z,1.23
2023-01-18T07:07:33.155Z,1.58
2023-01-18T07:09:59.929Z,3.42
2023-01-18T07:12:26.739Z,2.22
2023-01-18T07:14:53.477Z,1.38
2023-01-18T07:17:20.173Z,1.75
2023-01-18T07:19:46.901Z,0.95
2023-01-18T07:22:13.768Z,1.05
2023-01-18T07:24:40.530Z,0.88
2023-01-18T07:27:07.332Z,0.90
2023-01-18T07:29:34.156Z,1.05
2023-01-18T07:32:01.348Z,0.52
2023-01-18T07:34:28.383Z,0.65
2023-01-18T07:36:55.186Z,1.05
2023-01-18T07:39:22.065Z,0.98
2023-01-18T07:41:48.840Z,1.05
2023-01-18T07:44:15.857Z,1.02
2023-01-18T07:46:43.357Z,1.42
2023-01-18T07:49:10.276Z,1.20
2023-01-18T07:51:37.376Z,0.77
2023-01-18T07:54:04.297Z,0.85
2023-01-18T07:56:31.086Z,1.00
2023-01-18T07:58:57.791Z,1.30
2023-01-18T08:01:25.059Z,1.10
2023-01-18T08:03:54.724Z,1.25
2023-01-18T08:06:27.333Z,2.55
2023-01-18T08:08:57.487Z,1.58
2023-01-18T08:11:24.585Z,1.33
2023-01-18T08:13:52.742Z,1.55
2023-01-18T08:16:19.885Z,2.00
2023-01-18T08:18:49.805Z,3.00
2023-01-18T08:21:16.674Z,2.53
2023-01-18T08:23:43.409Z,1.30
2023-01-18T08:26:12.917Z,1.35
2023-01-18T08:28:41.532Z,1.50
2023-01-18T08:31:19.859Z,1.30
2023-01-18T08:33:49.018Z,1.40
2023-01-18T08:36:19.406Z,1.40
2023-01-18T08:38:58.051Z,1.10
2023-01-18T08:41:28.976Z,0.90
2023-01-18T08:43:56.637Z,1.38
2023-01-18T08:46:24.019Z,1.25
2023-01-18T08:48:56.577Z,1.27
2023-01-18T08:51:26.098Z,1.52
2023-01-18T08:53:54.603Z,0.65
2023-01-18T08:56:21.813Z,2.13
2023-01-18T08:58:48.838Z,3.25
2023-01-18T09:01:15.736Z,1.55
2023-01-18T09:03:42.591Z,1.65
2023-01-18T09:06:12.660Z,1.23
2023-01-18T09:08:39.894Z,1.20
2023-01-18T09:11:10.051Z,1.50
2023-01-18T09:13:39.651Z,1.20
2023-01-18T09:16:11.297Z,1.08
2023-01-18T09:18:38.892Z,1.15
2023-01-18T09:21:11.405Z,0.93
2023-01-18T09:23:40.202Z,1.35
2023-01-18T09:26:17.019Z,0.93
2023-01-18T09:28:47.433Z,1.08
2023-01-18T09:31:14.260Z,1.42
2023-01-18T09:33:51.159Z,1.35
2023-01-18T09:36:21.623Z,0.90
2023-01-18T09:38:48.425Z,1.27
2023-01-18T09:41:39.458Z,1.20
2023-01-18T09:44:24.759Z,1.42
2023-01-18T09:47:10.382Z,0.90
2023-01-18T09:49:41.356Z,1.17
2023-01-18T09:52:19.623Z,1.42
2023-01-18T09:54:58.886Z,0.95
2023-01-18T09:58:00.142Z,1.40
2023-01-18T10:00:34.230Z,1.05
2023-01-18T10:03:08.910Z,0.82
2023-01-18T10:05:51.343Z,0.77
2023-01-18T10:08:28.519Z,1.42
2023-01-18T10:11:11.840Z,0.77
2023-01-18T10:13:43.516Z,1.20
2023-01-18T10:16:16.050Z,2.40
2023-01-18T10:18:46.542Z,1.77
2023-01-18T10:21:32.415Z,1.35
2023-01-18T10:24:16.793Z,0.93
2023-01-18T10:26:45.084Z,1.25
2023-01-18T10:30:02.181Z,1.05
2023-01-18T10:32:30.831Z,1.20
2023-01-18T10:34:57.935Z,0.95
2023-01-18T10:37:35.739Z,1.05
2023-01-18T10:40:07.738Z,1.10
2023-01-18T10:42:49.033Z,0.98
2023-01-18T10:45:22.666Z,0.93
2023-01-18T10:47:55.665Z,1.05
2023-01-18T10:50:40.037Z,0.68
2023-01-18T10:53:31.561Z,0.70
2023-01-18T10:56:14.747Z,1.20
2023-01-18T11:01:25.672Z,1.67
2023-01-18T11:03:59.943Z,0.82
2023-01-18T11:06:27.139Z,1.65
2023-01-18T11:08:54.207Z,1.20
2023-01-18T11:11:46.549Z,0.73
2023-01-18T11:14:32.178Z,1.53
2023-01-18T11:17:11.083Z,1.27
2023-01-18T11:19:39.053Z,0.98
2023-01-18T11:22:13.299Z,1.00
2023-01-18T11:24:40.345Z,1.33
2023-01-18T11:27:23.287Z,0.98
2023-01-18T11:29:50.633Z,1.25
2023-01-18T11:32:27.256Z,1.35
2023-01-18T11:35:00.065Z,0.93
2023-01-18T11:39:58.165Z,0.98
2023-01-18T11:42:36.570Z,1.13
2023-01-18T11:45:54.408Z,1.20
2023-01-18T11:48:48.641Z,0.88
2023-01-18T11:51:26.924Z,1.50
2023-01-18T11:54:28.948Z,1.20
2023-01-18T11:57:02.917Z,1.00
2023-01-18T11:59:37.310Z,1.27
2023-01-18T12:02:46.155Z,1.08
2023-01-18T12:05:40.846Z,1.48
2023-01-18T12:08:55.575Z,1.60
2023-01-18T12:11:50.305Z,1.17
2023-01-18T12:14:29.615Z,1.95
2023-01-18T12:17:24.999Z,1.20
2023-01-18T12:20:00.106Z,1.60
2023-01-18T12:23:09.419Z,1.20
2023-01-18T12:26:06.876Z,1.20
2023-01-18T12:29:08.171Z,1.17
2023-01-18T12:32:20.494Z,1.20
2023-01-18T12:35:24.543Z,1.70
2023-01-18T12:38:23.157Z,1.50
2023-01-18T12:41:17.776Z,1.20
2023-01-18T12:44:22.218Z,3.25
2023-01-18T12:47:04.465Z,1.90
2023-01-18T12:49:39.970Z,1.55
2023-01-18T12:52:18.680Z,2.00
2023-01-18T12:54:56.206Z,1.77
2023-01-18T12:57:24.211Z,1.70
2023-01-18T13:00:15.424Z,1.27
2023-01-18T13:02:47.521Z,2.78
2023-01-18T13:05:52.601Z,0.98
2023-01-18T13:08:42.641Z,1.10
2023-01-18T13:11:22.451Z,1.80
2023-01-18T13:14:01.980Z,1.80
2023-01-18T13:16:55.847Z,2.00
2023-01-18T13:19:29.433Z,1.50
2023-01-18T13:22:09.213Z,1.67
2023-01-18T13:25:40.487Z,1.38
2023-01-18T13:28:20.910Z,1.70
2023-01-18T13:31:01.828Z,1.00
2023-01-18T13:33:44.200Z,1.52
2023-01-18T13:36:17.402Z,2.28
2023-01-18T13:38:54.637Z,1.02
2023-01-18T13:41:30.611Z,1.92
2023-01-18T13:44:25.659Z,1.27
2023-01-18T13:46:52.430Z,1.25
2023-01-18T13:49:36.077Z,1.48
2023-01-18T13:52:35.826Z,2.00
2023-01-18T13:55:31.210Z,1.25
2023-01-18T13:57:58.479Z,1.50
2023-01-18T14:00:26.734Z,1.23
2023-01-18T14:03:03.802Z,1.63
2023-01-18T14:05:45.582Z,1.40
2023-01-18T14:08:29.333Z,1.05
2023-01-18T14:11:04.946Z,1.55
2023-01-18T14:13:46.538Z,1.52
2023-01-18T14:16:24.597Z,1.45
2023-01-18T14:19:02.305Z,2.10
2023-01-18T14:22:02.343Z,1.70
2023-01-18T14:25:00.354Z,1.75
2023-01-18T14:27:33.756Z,2.00
2023-01-18T14:30:13.515Z,1.92
2023-01-18T14:32:49.349Z,1.17
2023-01-18T14:35:25.939Z,1.40
2023-01-18T14:37:54.290Z,2.10
2023-01-18T14:40:26.488Z,1.55
2023-01-18T14:43:01.213Z,1.75
2023-01-18T14:45:38.816Z,2.15
2023-01-18T14:48:12.353Z,1.45
2023-01-18T14:50:45.864Z,1.40
2023-01-18T14:53:21.456Z,1.08
2023-01-18T14:56:11.931Z,1.08
2023-01-18T14:58:54.533Z,1.33
2023-01-18T15:01:29.114Z,1.52
2023-01-18T15:03:59.367Z,1.75
2023-01-18T15:06:52.233Z,1.27
2023-01-18T15:09:22.624Z,2.25
2023-01-18T15:11:53.100Z,1.98
2023-01-18T15:14:33.206Z,1.80
2023-01-18T15:17:01.312Z,1.90
2023-01-18T15:19:45.651Z,2.35
2023-01-18T15:22:17.521Z,1.65
2023-01-18T15:24:45.813Z,1.83
2023-01-18T15:27:18.731Z,1.48
2023-01-18T15:29:53.563Z,1.50
2023-01-18T15:32:23.222Z,2.58
2023-01-18T15:34:52.126Z,1.40
2023-01-18T15:37:27.560Z,1.20
2023-01-18T15:39:57.859Z,1.40
2023-01-18T15:42:59.173Z,1.80
2023-01-18T15:45:38.934Z,1.98
2023-01-18T15:48:13.478Z,2.08
2023-01-18T15:50:52.536Z,2.30
2023-01-18T15:53:30.521Z,1.58
2023-01-18T15:56:03.454Z,1.70
2023-01-18T15:58:39.253Z,1.92
2023-01-18T16:01:17.621Z,2.15
2023-01-18T16:03:50.361Z,1.55
2023-01-18T16:06:22.720Z,1.77
2023-01-18T16:09:12.877Z,1.90
2023-01-18T16:11:54.681Z,4.05
2023-01-18T16:14:35.874Z,3.80
2023-01-18T16:17:16.452Z,2.88
2023-01-18T16:19:57.803Z,2.03
2023-01-18T16:22:37.303Z,2.55
2023-01-18T16:25:23.556Z,6.65
2023-01-18T16:28:00.607Z,5.43
2023-01-18T16:30:34.942Z,2.90
2023-01-18T16:33:28.179Z,2.92
2023-01-18T16:38:21.543Z,2.17
2023-01-18T16:40:50.506Z,1.67
2023-01-18T16:43:27.513Z,1.13
2023-01-18T16:45:59.038Z,1.38
2023-01-18T16:48:28.348Z,1.33
2023-01-18T16:51:01.688Z,1.92
2023-01-18T16:53:31.837Z,2.10
2023-01-18T16:55:58.545Z,1.90
2023-01-18T16:58:26.389Z,1.13
2023-01-18T17:01:01.290Z,1.85
2023-01-18T17:03:28.185Z,1.63
2023-01-18T17:05:55.613Z,1.88
2023-01-18T17:08:22.452Z,2.78
2023-01-18T17:10:51.561Z,2.78
2023-01-18T17:13:18.588Z,3.45
2023-01-18T17:15:45.727Z,1.85
2023-01-18T17:18:20.860Z,2.25
2023-01-18T17:20:47.676Z,2.47
2023-01-18T17:23:14.457Z,3.20
2023-01-18T17:25:41.456Z,3.03
2023-01-18T17:28:08.740Z,1.42
2023-01-18T17:30:37.904Z,1.77
2023-01-18T17:33:04.734Z,4.18
2023-01-18T17:35:32.291Z,5.32
2023-01-18T17:38:06.708Z,3.13
2023-01-18T17:40:44.561Z,2.42
2023-01-18T17:43:28.535Z,2.17
2023-01-18T17:46:01.862Z,2.70
2023-01-18T17:48:29.175Z,3.05
2023-01-18T17:50:56.049Z,4.57
2023-01-18T17:53:22.830Z,4.13
2023-01-18T17:55:50.116Z,7.40
2023-01-18T17:58:16.861Z,12.35
2023-01-18T18:00:43.589Z,12.55
2023-01-18T18:03:10.498Z,10.90
2023-01-18T18:05:37.246Z,7.70
2023-01-18T18:08:04.260Z,5.63
2023-01-18T18:10:31.252Z,4.70
2023-01-18T18:12:58.505Z,5.55
2023-01-18T18:15:25.849Z,5.93
2023-01-18T18:17:52.590Z,4.97
2023-01-18T18:20:21.391Z,4.38
2023-01-18T18:22:48.854Z,2.97
2023-01-18T18:25:15.585Z,2.63
2023-01-18T18:27:46.453Z,3.95
2023-01-18T18:30:14.603Z,3.85
2023-01-18T18:32:41.415Z,4.43
2023-01-18T18:35:23.870Z,3.58
2023-01-18T18:37:52.282Z,4.60
2023-01-18T18:40:19.375Z,4.70
2023-01-18T18:42:56.436Z,4.55
2023-01-18T18:45:27.583Z,3.03
2023-01-18T18:47:54.353Z,3.08
2023-01-18T18:50:21.128Z,3.55
2023-01-18T18:52:47.978Z,4.15
2023-01-18T18:55:14.867Z,4.13
2023-01-18T18:57:41.766Z,4.40
2023-01-18T19:00:09.879Z,3.45
2023-01-18T19:02:36.809Z,2.45
2023-01-18T19:05:04.049Z,3.17
2023-01-18T19:07:31.137Z,2.42
2023-01-18T19:09:57.876Z,2.92
2023-01-18T19:12:24.701Z,6.28
2023-01-18T19:14:51.816Z,14.25
2023-01-18T19:17:28.900Z,9.00
2023-01-18T19:19:56.854Z,14.75
2023-01-18T19:22:23.616Z,6.28
2023-01-18T19:24:50.367Z,4.22
2023-01-18T19:27:17.110Z,4.03
2023-01-18T19:29:44.075Z,4.05
2023-01-18T19:32:10.821Z,4.45
2023-01-18T19:34:40.323Z,2.60
2023-01-18T19:37:07.415Z,3.15
2023-01-18T19:39:35.044Z,2.97
2023-01-18T19:42:02.517Z,2.75
2023-01-18T19:44:29.903Z,3.45
2023-01-18T19:46:57.199Z,3.50
2023-01-18T19:49:27.536Z,2.50
2023-01-18T19:51:54.789Z,3.38
2023-01-18T19:54:22.305Z,2.63
2023-01-18T19:56:49.498Z,3.38
2023-01-18T19:59:16.481Z,4.05
2023-01-18T20:01:43.423Z,4.22
2023-01-18T20:04:13.008Z,4.28
2023-01-18T20:06:40.011Z,3.33
2023-01-18T20:09:18.506Z,4.15
2023-01-18T20:11:47.469Z,3.83
2023-01-18T20:14:14.590Z,5.72
2023-01-18T20:16:42.836Z,3.97
2023-01-18T20:19:13.875Z,5.28
2023-01-18T20:21:40.729Z,4.13
2023-01-18T20:24:08.037Z,4.47
2023-01-18T20:26:38.078Z,4.05
2023-01-18T20:29:07.278Z,4.88
2023-01-18T20:31:36.654Z,4.53
2023-01-18T20:34:05.039Z,3.85
2023-01-18T20:36:32.213Z,3.45
2023-01-18T20:38:59.053Z,3.53
2023-01-18T20:41:25.813Z,4.65
2023-01-18T20:43:52.677Z,4.57
2023-01-18T20:46:19.431Z,4.40
2023-01-18T20:48:46.186Z,3.30
2023-01-18T20:51:13.253Z,4.93
2023-01-18T20:53:40.001Z,4.03
2023-01-18T20:56:23.343Z,4.38
2023-01-18T20:58:54.915Z,5.88
2023-01-18T21:01:21.859Z,3.83
2023-01-18T21:03:55.434Z,3.78
2023-01-18T21:06:22.300Z,5.13
2023-01-18T21:08:53.029Z,3.13
2023-01-18T21:11:25.339Z,3.38
2023-01-18T21:13:55.250Z,4.28
2023-01-18T21:16:23.571Z,3.58
2023-01-18T21:18:52.768Z,4.28
2023-01-18T21:21:20.680Z,3.63
2023-01-18T21:23:47.482Z,3.80
2023-01-18T21:26:14.793Z,3.05
2023-01-18T21:28:41.731Z,2.88
2023-01-18T21:31:08.926Z,3.92
2023-01-18T21:33:35.730Z,3.63
2023-01-18T21:36:05.484Z,4.95
2023-01-18T21:38:32.392Z,3.78
2023-01-18T21:41:19.294Z,3.42
2023-01-18T21:44:04.548Z,3.88
2023-01-18T21:46:31.542Z,4.28
2023-01-18T21:49:03.986Z,4.85
2023-01-18T21:51:49.109Z,3.42
2023-01-18T21:54:16.031Z,3.55
2023-01-18T21:56:44.772Z,3.20
2023-01-18T21:59:13.181Z,3.42
2023-01-18T22:01:43.910Z,3.75
2023-01-18T22:04:32.413Z,2.85
2023-01-18T22:07:00.164Z,4.20
2023-01-18T22:09:28.536Z,4.63
2023-01-18T22:11:59.756Z,4.30
2023-01-18T22:14:27.575Z,4.35
2023-01-18T22:16:54.315Z,5.13
2023-01-18T22:19:21.093Z,5.55
2023-01-18T22:21:48.802Z,4.47
2023-01-18T22:24:17.404Z,3.83
2023-01-18T22:26:45.419Z,3.67
2023-01-18T22:29:13.005Z,3.42
2023-01-18T22:31:40.179Z,4.93
2023-01-18T22:34:07.718Z,4.45
2023-01-18T22:36:34.701Z,3.63
2023-01-18T22:39:01.440Z,3.83
2023-01-18T22:41:29.442Z,4.78
2023-01-18T22:43:56.964Z,4.13
2023-01-18T22:46:24.658Z,4.18
2023-01-18T22:48:52.084Z,3.60
2023-01-18T22:51:23.615Z,4.50
2023-01-18T22:53:51.568Z,3.75
2023-01-18T22:56:22.379Z,3.67
2023-01-18T22:58:49.871Z,3.97
2023-01-18T23:01:26.408Z,3.30
2023-01-18T23:03:57.638Z,2.45
2023-01-18T23:06:25.068Z,2.78
2023-01-18T23:08:52.722Z,5.05
2023-01-18T23:11:27.441Z,5.40
2023-01-18T23:14:15.989Z,2.92
2023-01-18T23:17:02.508Z,3.78
2023-01-18T23:19:30.870Z,3.08
2023-01-18T23:21:58.132Z,2.83
2023-01-18T23:24:25.361Z,3.58
2023-01-18T23:26:52.555Z,3.58
2023-01-18T23:29:20.499Z,3.17
2023-01-18T23:31:47.398Z,2.85
2023-01-18T23:34:14.259Z,2.78
2023-01-18T23:36:41.027Z,3.13
2023-01-18T23:39:26.605Z,3.58
2023-01-18T23:42:12.224Z,3.25
2023-01-18T23:44:57.401Z,2.58
2023-01-18T23:47:43.216Z,2.72
2023-01-18T23:50:29.142Z,3.13
2023-01-18T23:53:14.639Z,3.67
2023-01-18T23:55:41.581Z,3.40
2023-01-18T23:58:08.365Z,2.60
